Flugplatz Grabenstetten (EDSG)

Hier findest Du alle Informationen zum Flugplatz Grabenstetten (EDSG).

Informationen für Piloten zum Flugplatz Grabenstetten

Hier findest Du alle relevanten Informationen, die Du als Pilot benötigst, um Grabenstetten anzufliegen.

Flugplatz: Grabenstetten ICAO-Code: EDSG
Frequenz Turm: 130.125 Mhz GAFOR Gebiet: 62
Frequenz Ground: 130.125 Mhz Mogas: nein
Platzrunde: N 3100 ft Landegebühr: 3 €
Platzhöhe: Sunrise: 04:03 Uhr UTC
Pisten: 12/30 - 950 m x 30 m, GRAS Sunset: 18:52 Uhr UTC

Mitglieder, die in Grabenstetten fliegen

Flugwetter am Flugplatz Grabenstetten

Die METAR Information stammen aus EDDS (23.93 km entfernt).

METAR Code:
2020/07/27 11:20
EDDS 271120Z 18006KT 120V280 CAVOK 27/13 Q1016 NOSIG

Temperatur: 16,6 °C Niederschlag: - Wind: 4,0 kt
Temperatur (min.): 14,4 °C Luftdruck: 1019 hPa Windrichtung: 112 °
Temperatur (max.): 18,3 °C Luftfeuchtigkeit: 76 % Bewölkung: -

Flugschulen am Flugplatz Grabenstetten

Am Flugplatz Grabenstetten gibt es leider keine Flugschule.

Benachbarte Flugplätze und Flugschulen

Es gibt 30 weitere Flugplätze in einem Umkreis von 50 km um den Flugplatz Grabenstetten.

Jetzt anmelden

Passwort vergessen

Umfrage Archiv

Wären Rettungsgeräte keine Pflicht mehr, würdet Ihr Euer UL trotzdem mit einem ausstatten?

Ja
82.8 %
Nein
17.2 %
Stimmen: 250 | Diskussion
Anzeige: Roland Aircraft
Statistik Alle Mitglieder

Aktuell sind 47 Besucher online.

Anzeige: VFR Sprechfunk Simulator


Anzeige: Pocket FMS